Split Airport

Airport
ICAO code: 
LDSP
IATA Code: 
SPU
Summary
ICAO Region: 
EUR
Territory: 
Location: 
Kastela, Dalmatia
Serving: 
Split
Elevation: 
78 ft
Coordinates: 
Aerial View: 
43° 32' 20.034" N, 16° 17' 52.801" E
Metar
Observation
LDSP 270230Z AUTO 31008KT CAVOK 05/M01 Q1026
Station
Split / Resnik
Date/Time
2022-01-27 02:30:00
Wind direction
310°
Wind speed
08 kts
Lowest cloud amount
clouds and visibility OK
Temperature
5°C
Dew point
-1°C
Humidity
65%
QNH
1026 hPa
Weather condition
n/a

Description

International airport serving Split, Croatia.

Climatology

Dry-summer subtropical ”Mediterranean" climate (Köppen climate classification Csa)

Runways

Designator Length Width Surface Rops
5/23 2550 45 ASP Yes/Yes
Airport map: 
Aerial View: 

SKYbrary Partners:

Safety knowledge contributed by: